Terminal Aerodrome Forecast
Issued by NWS

Home | Current Version | Previous Version | Text Only | Print | Product List | Glossary On
Versions: 1 2 3 4 5 6 7 8 9 10 11 12 13
972
FTUS44 KTSA 130520
TAFMLC
TAF
KMLC 130520Z 1306/1406 03007KT P6SM BKN100
     FM131000 02007KT P6SM SCT250
     FM131700 09009G16KT P6SM SCT250
     FM140100 12008G14KT P6SM SCT020 BKN250
     FM140300 13010G16KT P6SM BKN020 OVC100=

USA.gov is the U.S. government's official web portal to all federal, state and local government web resources and services.